Time,TemperatureF,DewpointF,PressureIn,WindDirection,WindDirectionDegrees,WindSpeedMPH,WindSpeedGustMPH,Humidity,HourlyPrecipIn,Conditions,Clouds,dailyrainin,SoftwareType,DateUTC
2013-01-04 00:00:00,9.4,5.3,30.29,West,273,2.0,9.0,83,0.00,,,0.00,WeatherTracker,2013-01-04 06:00:00,
2013-01-04 00:05:00,9.4,5.3,30.29,SW,233,4.0,9.0,83,0.00,,,0.00,WeatherTracker,2013-01-04 06:05:00,
2013-01-04 00:10:00,9.2,5.1,30.29,West,267,2.0,9.0,83,0.00,,,0.00,WeatherTracker,2013-01-04 06:10:00,
2013-01-04 00:20:00,9.1,5.3,30.29,West,259,7.0,7.0,84,0.00,,,0.00,WeatherTracker,2013-01-04 06:20:00,
2013-01-04 00:25:00,9.0,5.2,30.29,West,280,1.0,8.0,84,0.00,,,0.00,WeatherTracker,2013-01-04 06:25:00,
2013-01-04 00:30:00,9.0,5.2,30.29,WSW,255,5.0,8.0,84,0.00,,,0.00,WeatherTracker,2013-01-04 06:30:00,
2013-01-04 00:40:00,8.9,5.1,30.29,WSW,256,1.0,7.0,84,0.00,,,0.00,WeatherTracker,2013-01-04 06:40:00,
2013-01-04 00:45:00,8.7,4.9,30.29,WNW,282,1.0,7.0,84,0.00,,,0.00,WeatherTracker,2013-01-04 06:45:00,
2013-01-04 00:50:00,8.7,4.9,30.28,West,269,2.0,7.0,84,0.00,,,0.00,WeatherTracker,2013-01-04 06:50:00,
2013-01-04 00:55:00,8.6,5.0,30.28,WSW,257,4.0,6.0,85,0.00,,,0.00,WeatherTracker,2013-01-04 06:55:00,
2013-01-04 01:05:00,8.5,4.9,30.27,WNW,286,4.0,8.0,85,0.00,,,0.00,WeatherTracker,2013-01-04 07:05:00,
2013-01-04 01:10:00,8.5,4.9,30.27,West,262,4.0,10.0,85,0.00,,,0.00,WeatherTracker,2013-01-04 07:10:00,
2013-01-04 01:20:00,8.4,5.1,30.27,West,275,4.0,10.0,86,0.00,,,0.00,WeatherTracker,2013-01-04 07:20:00,
2013-01-04 01:25:00,8.5,5.2,30.27,WSW,238,4.0,10.0,86,0.00,,,0.00,WeatherTracker,2013-01-04 07:25:00,
2013-01-04 01:35:00,8.5,5.2,30.26,SW,234,3.0,8.0,86,0.00,,,0.00,WeatherTracker,2013-01-04 07:35:00,
2013-01-04 01:40:00,8.5,5.2,30.26,West,275,2.0,8.0,86,0.00,,,0.00,WeatherTracker,2013-01-04 07:40:00,
2013-01-04 01:45:00,8.5,5.2,30.26,West,277,2.0,7.0,86,0.00,,,0.00,WeatherTracker,2013-01-04 07:45:00,
2013-01-04 01:55:00,8.5,5.2,30.26,South,190,3.0,8.0,86,0.00,,,0.00,WeatherTracker,2013-01-04 07:55:00,
2013-01-04 02:05:00,8.5,5.4,30.26,West,265,4.0,8.0,87,0.00,,,0.00,WeatherTracker,2013-01-04 08:05:00,
2013-01-04 02:10:00,8.5,5.4,30.26,WSW,250,0.0,8.0,87,0.00,,,0.00,WeatherTracker,2013-01-04 08:10:00,
2013-01-04 02:15:00,8.5,5.4,30.26,West,267,0.0,6.0,87,0.00,,,0.00,WeatherTracker,2013-01-04 08:15:00,
2013-01-04 02:25:00,8.6,5.5,30.26,West,259,2.0,7.0,87,0.00,,,0.00,WeatherTracker,2013-01-04 08:25:00,
2013-01-04 02:30:00,8.7,5.9,30.26,SSW,199,4.0,7.0,88,0.00,,,0.00,WeatherTracker,2013-01-04 08:30:00,
2013-01-04 02:40:00,8.9,6.1,30.25,SSW,208,3.0,11.0,88,0.00,,,0.00,WeatherTracker,2013-01-04 08:40:00,
2013-01-04 02:50:00,9.2,6.6,30.25,West,273,3.0,12.0,89,0.00,,,0.00,WeatherTracker,2013-01-04 08:50:00,
2013-01-04 02:55:00,9.4,6.8,30.25,South,185,5.0,12.0,89,0.00,,,0.00,WeatherTracker,2013-01-04 08:55:00,
2013-01-04 03:00:00,9.5,6.9,30.25,WSW,239,4.0,9.0,89,0.00,,,0.00,WeatherTracker,2013-01-04 09:00:00,
2013-01-04 03:10:00,9.7,7.1,30.25,WSW,240,7.0,9.0,89,0.00,,,0.00,WeatherTracker,2013-01-04 09:10:00,
2013-01-04 03:20:00,9.8,7.2,30.24,West,263,2.0,10.0,89,0.00,,,0.00,WeatherTracker,2013-01-04 09:20:00,
2013-01-04 03:25:00,9.9,7.3,30.24,West,259,5.0,10.0,89,0.00,,,0.00,WeatherTracker,2013-01-04 09:25:00,
2013-01-04 03:30:00,10.0,7.4,30.24,WSW,250,5.0,11.0,89,0.00,,,0.00,WeatherTracker,2013-01-04 09:30:00,
2013-01-04 03:40:00,10.0,7.2,30.23,SW,224,3.0,15.0,88,0.00,,,0.00,WeatherTracker,2013-01-04 09:40:00,
2013-01-04 03:45:00,10.0,7.2,30.23,SSE,153,7.0,15.0,88,0.00,,,0.00,WeatherTracker,2013-01-04 09:45:00,
2013-01-04 03:55:00,9.9,7.1,30.23,WSW,250,4.0,13.0,88,0.00,,,0.00,WeatherTracker,2013-01-04 09:55:00,
2013-01-04 04:00:00,9.8,7.0,30.22,SW,216,7.0,13.0,88,0.00,,,0.00,WeatherTracker,2013-01-04 10:00:00,
2013-01-04 04:10:00,9.8,7.0,30.22,West,260,7.0,10.0,88,0.00,,,0.00,WeatherTracker,2013-01-04 10:10:00,
2013-01-04 04:15:00,9.8,7.0,30.22,SW,232,6.0,13.0,88,0.00,,,0.00,WeatherTracker,2013-01-04 10:15:00,
2013-01-04 04:20:00,9.8,7.0,30.22,WSW,237,4.0,13.0,88,0.00,,,0.00,WeatherTracker,2013-01-04 10:20:00,
2013-01-04 04:30:00,9.8,7.0,30.22,SSW,207,5.0,10.0,88,0.00,,,0.00,WeatherTracker,2013-01-04 10:30:00,
2013-01-04 04:35:00,9.9,7.1,30.21,WSW,254,11.0,13.0,88,0.00,,,0.00,WeatherTracker,2013-01-04 10:35:00,
2013-01-04 04:45:00,9.9,7.1,30.21,SW,214,1.0,11.0,88,0.00,,,0.00,WeatherTracker,2013-01-04 10:45:00,
2013-01-04 04:55:00,9.9,7.1,30.21,SSW,203,1.0,9.0,88,0.00,,,0.00,WeatherTracker,2013-01-04 10:55:00,
2013-01-04 05:00:00,10.0,7.2,30.21,SW,236,2.0,12.0,88,0.00,,,0.00,WeatherTracker,2013-01-04 11:00:00,
2013-01-04 05:10:00,10.0,7.2,30.20,West,271,2.0,15.0,88,0.00,,,0.00,WeatherTracker,2013-01-04 11:10:00,
2013-01-04 05:20:00,10.1,7.5,30.20,SW,229,3.0,12.0,89,0.00,,,0.00,WeatherTracker,2013-01-04 11:20:00,
2013-01-04 05:25:00,10.1,7.5,30.20,WSW,246,7.0,12.0,89,0.00,,,0.00,WeatherTracker,2013-01-04 11:25:00,
2013-01-04 05:30:00,10.2,7.6,30.20,SW,221,5.0,15.0,89,0.00,,,0.00,WeatherTracker,2013-01-04 11:30:00,
2013-01-04 05:40:00,10.4,7.8,30.21,West,261,5.0,14.0,89,0.00,,,0.00,WeatherTracker,2013-01-04 11:40:00,
2013-01-04 05:45:00,10.4,7.8,30.21,West,263,0.0,10.0,89,0.00,,,0.00,WeatherTracker,2013-01-04 11:45:00,
2013-01-04 05:50:00,10.5,7.9,30.21,West,266,3.0,7.0,89,0.00,,,0.00,WeatherTracker,2013-01-04 11:50:00,
2013-01-04 06:00:00,10.6,8.0,30.21,WSW,239,1.0,9.0,89,0.00,,,0.00,WeatherTracker,2013-01-04 12:00:00,
2013-01-04 06:05:00,10.7,8.1,30.21,West,261,7.0,7.0,89,0.00,,,0.00,WeatherTracker,2013-01-04 12:05:00,
2013-01-04 06:10:00,10.8,8.2,30.21,WSW,257,5.0,8.0,89,0.00,,,0.00,WeatherTracker,2013-01-04 12:10:00,
2013-01-04 06:15:00,10.9,8.3,30.20,SW,235,6.0,9.0,89,0.00,,,0.00,WeatherTracker,2013-01-04 12:15:00,
2013-01-04 06:25:00,11.1,8.5,30.20,WSW,244,12.0,12.0,89,0.00,,,0.00,WeatherTracker,2013-01-04 12:25:00,
2013-01-04 06:30:00,11.3,8.9,30.20,SSW,199,2.0,14.0,90,0.00,,,0.00,WeatherTracker,2013-01-04 12:30:00,
2013-01-04 06:35:00,11.4,9.0,30.20,WSW,253,4.0,14.0,90,0.00,,,0.00,WeatherTracker,2013-01-04 12:35:00,
2013-01-04 06:40:00,11.6,9.2,30.20,SW,219,8.0,14.0,90,0.00,,,0.00,WeatherTracker,2013-01-04 12:40:00,
2013-01-04 06:45:00,11.8,9.4,30.21,West,275,3.0,13.0,90,0.00,,,0.00,WeatherTracker,2013-01-04 12:45:00,
2013-01-04 06:50:00,11.9,9.3,30.21,West,272,6.0,13.0,89,0.00,,,0.00,WeatherTracker,2013-01-04 12:50:00,
2013-01-04 06:55:00,12.0,9.4,30.21,WSW,246,3.0,12.0,89,0.00,,,0.00,WeatherTracker,2013-01-04 12:55:00,
2013-01-04 07:00:00,12.1,9.5,30.21,SW,235,7.0,13.0,89,0.00,,,0.00,WeatherTracker,2013-01-04 13:00:00,
2013-01-04 07:05:00,12.1,9.5,30.22,WSW,244,0.0,13.0,89,0.00,,,0.00,WeatherTracker,2013-01-04 13:05:00,
2013-01-04 07:15:00,12.2,9.6,30.22,West,263,9.0,10.0,89,0.00,,,0.00,WeatherTracker,2013-01-04 13:15:00,
2013-01-04 07:25:00,12.3,9.4,30.22,WSW,246,1.0,13.0,88,0.00,,,0.00,WeatherTracker,2013-01-04 13:25:00,
2013-01-04 07:30:00,12.3,9.7,30.22,West,265,3.0,13.0,89,0.00,,,0.00,WeatherTracker,2013-01-04 13:30:00,
2013-01-04 07:35:00,12.3,9.7,30.22,West,271,4.0,12.0,89,0.00,,,0.00,WeatherTracker,2013-01-04 13:35:00,
2013-01-04 07:40:00,12.4,9.8,30.22,West,263,2.0,14.0,89,0.00,,,0.00,WeatherTracker,2013-01-04 13:40:00,
2013-01-04 07:45:00,12.4,9.8,30.22,WSW,250,5.0,14.0,89,0.00,,,0.00,WeatherTracker,2013-01-04 13:45:00,
2013-01-04 07:55:00,12.6,10.0,30.21,SSW,206,7.0,14.0,89,0.00,,,0.00,WeatherTracker,2013-01-04 13:55:00,
2013-01-04 08:00:00,12.6,10.0,30.21,SW,229,12.0,13.0,89,0.00,,,0.00,WeatherTracker,2013-01-04 14:00:00,
2013-01-04 08:10:00,12.8,10.2,30.21,WSW,245,7.0,14.0,89,0.00,,,0.00,WeatherTracker,2013-01-04 14:10:00,
2013-01-04 08:15:00,13.0,10.1,30.21,West,265,4.0,15.0,88,0.00,,,0.00,WeatherTracker,2013-01-04 14:15:00,
2013-01-04 08:20:00,13.1,10.2,30.21,SSW,211,3.0,15.0,88,0.00,,,0.00,WeatherTracker,2013-01-04 14:20:00,
2013-01-04 08:30:00,13.3,10.4,30.20,SW,234,7.0,14.0,88,0.00,,,0.00,WeatherTracker,2013-01-04 14:30:00,
2013-01-04 08:35:00,13.5,10.6,30.20,WSW,240,6.0,14.0,88,0.00,,,0.00,WeatherTracker,2013-01-04 14:35:00,
2013-01-04 08:40:00,13.7,10.8,30.20,West,259,5.0,17.0,88,0.00,,,0.00,WeatherTracker,2013-01-04 14:40:00,
2013-01-04 08:45:00,13.9,11.0,30.21,WSW,240,5.0,17.0,88,0.00,,,0.00,WeatherTracker,2013-01-04 14:45:00,
2013-01-04 08:55:00,14.3,11.4,30.21,West,277,6.0,11.0,88,0.00,,,0.00,WeatherTracker,2013-01-04 14:55:00,
2013-01-04 09:05:00,14.7,11.8,30.22,WSW,249,6.0,12.0,88,0.00,,,0.00,WeatherTracker,2013-01-04 15:05:00,
2013-01-04 09:10:00,15.0,11.8,30.22,WSW,246,8.0,12.0,87,0.00,,,0.00,WeatherTracker,2013-01-04 15:10:00,
2013-01-04 09:20:00,15.4,12.2,30.21,SW,229,6.0,16.0,87,0.00,,,0.00,WeatherTracker,2013-01-04 15:20:00,
2013-01-04 09:30:00,16.0,12.8,30.22,WSW,242,3.0,14.0,87,0.00,,,0.00,WeatherTracker,2013-01-04 15:30:00,
2013-01-04 09:40:00,17.3,13.6,30.22,SW,216,5.0,15.0,85,0.00,,,0.00,WeatherTracker,2013-01-04 15:40:00,
2013-01-04 09:45:00,17.7,13.7,30.22,West,265,4.0,12.0,84,0.00,,,0.00,WeatherTracker,2013-01-04 15:45:00,
2013-01-04 09:50:00,18.0,13.7,30.22,SW,232,3.0,13.0,83,0.00,,,0.00,WeatherTracker,2013-01-04 15:50:00,
2013-01-04 09:55:00,18.2,13.9,30.22,WSW,248,5.0,13.0,83,0.00,,,0.00,WeatherTracker,2013-01-04 15:55:00,
2013-01-04 10:00:00,18.4,14.1,30.22,SW,229,2.0,10.0,83,0.00,,,0.00,WeatherTracker,2013-01-04 16:00:00,
2013-01-04 10:05:00,18.7,14.4,30.23,West,279,4.0,15.0,83,0.00,,,0.00,WeatherTracker,2013-01-04 16:05:00,
2013-01-04 10:15:00,19.4,14.8,30.23,WSW,244,6.0,11.0,82,0.00,,,0.00,WeatherTracker,2013-01-04 16:15:00,
2013-01-04 10:20:00,19.9,15.0,30.22,SW,235,6.0,12.0,81,0.00,,,0.00,WeatherTracker,2013-01-04 16:20:00,
2013-01-04 10:30:00,20.5,15.6,30.22,West,278,5.0,13.0,81,0.00,,,0.00,WeatherTracker,2013-01-04 16:30:00,
2013-01-04 10:40:00,21.2,16.0,30.21,West,273,6.0,12.0,80,0.00,,,0.00,WeatherTracker,2013-01-04 16:40:00,
2013-01-04 10:45:00,21.7,16.2,30.21,WNW,298,4.0,13.0,79,0.00,,,0.00,WeatherTracker,2013-01-04 16:45:00,
2013-01-04 10:50:00,22.3,16.8,30.21,WSW,250,5.0,13.0,79,0.00,,,0.00,WeatherTracker,2013-01-04 16:50:00,
2013-01-04 10:55:00,22.9,17.1,30.21,West,263,5.0,12.0,78,0.00,,,0.00,WeatherTracker,2013-01-04 16:55:00,
2013-01-04 11:00:00,23.5,17.7,30.21,SW,227,6.0,9.0,78,0.00,,,0.00,WeatherTracker,2013-01-04 17:00:00,
2013-01-04 11:05:00,23.9,17.8,30.22,West,276,2.0,9.0,77,0.00,,,0.00,WeatherTracker,2013-01-04 17:05:00,
2013-01-04 11:10:00,24.2,17.7,30.21,SW,229,8.0,9.0,76,0.00,,,0.00,WeatherTracker,2013-01-04 17:10:00,
2013-01-04 11:15:00,24.2,17.7,30.21,West,280,4.0,11.0,76,0.00,,,0.00,WeatherTracker,2013-01-04 17:15:00,
2013-01-04 11:20:00,24.4,17.9,30.21,West,265,2.0,11.0,76,0.00,,,0.00,WeatherTracker,2013-01-04 17:20:00,
2013-01-04 11:25:00,24.5,18.3,30.21,SW,224,4.0,10.0,77,0.00,,,0.00,WeatherTracker,2013-01-04 17:25:00,
2013-01-04 11:30:00,24.9,18.4,30.20,SW,218,10.0,11.0,76,0.00,,,0.00,WeatherTracker,2013-01-04 17:30:00,
2013-01-04 11:35:00,25.2,18.4,30.20,SW,227,4.0,13.0,75,0.00,,,0.00,WeatherTracker,2013-01-04 17:35:00,
2013-01-04 11:45:00,26.5,19.4,30.20,SSW,194,5.0,14.0,74,0.00,,,0.00,WeatherTracker,2013-01-04 17:45:00,
2013-01-04 11:55:00,26.4,19.3,30.20,SW,223,3.0,11.0,74,0.00,,,0.00,WeatherTracker,2013-01-04 17:55:00,
2013-01-04 12:00:00,26.4,18.9,30.20,West,276,4.0,11.0,73,0.00,,,0.00,WeatherTracker,2013-01-04 18:00:00,
2013-01-04 12:05:00,26.8,19.3,30.20,West,271,4.0,11.0,73,0.00,,,0.00,WeatherTracker,2013-01-04 18:05:00,
2013-01-04 12:10:00,27.0,19.5,30.20,WSW,258,4.0,12.0,73,0.00,,,0.00,WeatherTracker,2013-01-04 18:10:00,
2013-01-04 12:15:00,27.5,19.7,30.20,SW,234,10.0,12.0,72,0.00,,,0.00,WeatherTracker,2013-01-04 18:15:00,
2013-01-04 12:20:00,27.5,19.7,30.19,WNW,285,2.0,14.0,72,0.00,,,0.00,WeatherTracker,2013-01-04 18:20:00,
2013-01-04 12:30:00,27.7,19.9,30.19,West,278,7.0,10.0,72,0.00,,,0.00,WeatherTracker,2013-01-04 18:30:00,
2013-01-04 12:35:00,27.8,19.6,30.19,West,269,7.0,12.0,71,0.00,,,0.00,WeatherTracker,2013-01-04 18:35:00,
2013-01-04 12:45:00,28.1,20.3,30.19,SW,236,7.0,14.0,72,0.00,,,0.00,WeatherTracker,2013-01-04 18:45:00,
2013-01-04 12:55:00,28.0,20.2,30.19,WSW,242,6.0,14.0,72,0.00,,,0.00,WeatherTracker,2013-01-04 18:55:00,
2013-01-04 13:00:00,28.1,19.9,30.18,WNW,288,3.0,12.0,71,0.00,,,0.00,WeatherTracker,2013-01-04 19:00:00,
2013-01-04 13:05:00,27.9,19.7,30.18,West,259,4.0,12.0,71,0.00,,,0.00,WeatherTracker,2013-01-04 19:05:00,
2013-01-04 13:15:00,27.8,20.0,30.19,West,263,5.0,12.0,72,0.00,,,0.00,WeatherTracker,2013-01-04 19:15:00,
2013-01-04 13:20:00,27.5,20.0,30.18,SW,220,3.0,12.0,73,0.00,,,0.00,WeatherTracker,2013-01-04 19:20:00,
2013-01-04 13:30:00,28.2,20.0,30.19,WNW,292,4.0,11.0,71,0.00,,,0.00,WeatherTracker,2013-01-04 19:30:00,
2013-01-04 13:35:00,28.1,19.9,30.19,WNW,296,6.0,7.0,71,0.00,,,0.00,WeatherTracker,2013-01-04 19:35:00,
2013-01-04 13:40:00,28.0,19.8,30.19,West,267,4.0,10.0,71,0.00,,,0.00,WeatherTracker,2013-01-04 19:40:00,
2013-01-04 13:50:00,27.9,19.7,30.19,WNW,300,7.0,11.0,71,0.00,,,0.00,WeatherTracker,2013-01-04 19:50:00,
2013-01-04 14:00:00,27.9,20.1,30.19,WNW,297,1.0,10.0,72,0.00,,,0.00,WeatherTracker,2013-01-04 20:00:00,
2013-01-04 14:10:00,28.0,20.2,30.19,West,274,4.0,8.0,72,0.00,,,0.00,WeatherTracker,2013-01-04 20:10:00,
2013-01-04 14:15:00,27.9,20.1,30.19,West,259,3.0,13.0,72,0.00,,,0.00,WeatherTracker,2013-01-04 20:15:00,
2013-01-04 14:25:00,28.0,20.2,30.19,WSW,250,5.0,10.0,72,0.00,,,0.00,WeatherTracker,2013-01-04 20:25:00,
2013-01-04 14:35:00,28.0,20.2,30.20,WSW,252,5.0,12.0,72,0.00,,,0.00,WeatherTracker,2013-01-04 20:35:00,
2013-01-04 14:45:00,28.4,20.5,30.20,West,274,4.0,10.0,72,0.00,,,0.00,WeatherTracker,2013-01-04 20:45:00,
2013-01-04 14:50:00,28.3,20.1,30.21,West,278,3.0,11.0,71,0.00,,,0.00,WeatherTracker,2013-01-04 20:50:00,
2013-01-04 14:55:00,28.1,20.3,30.21,WSW,238,4.0,11.0,72,0.00,,,0.00,WeatherTracker,2013-01-04 20:55:00,
2013-01-04 15:05:00,28.2,20.4,30.21,SW,225,7.0,12.0,72,0.00,,,0.00,WeatherTracker,2013-01-04 21:05:00,
2013-01-04 15:10:00,28.2,20.7,30.21,West,279,2.0,12.0,73,0.00,,,0.00,WeatherTracker,2013-01-04 21:10:00,
2013-01-04 15:20:00,28.2,20.4,30.22,WSW,253,4.0,7.0,72,0.00,,,0.00,WeatherTracker,2013-01-04 21:20:00,
2013-01-04 15:25:00,28.1,20.3,30.21,WSW,243,2.0,9.0,72,0.00,,,0.00,WeatherTracker,2013-01-04 21:25:00,
2013-01-04 15:35:00,27.8,20.3,30.22,West,275,5.0,11.0,73,0.00,,,0.00,WeatherTracker,2013-01-04 21:35:00,
2013-01-04 15:40:00,27.9,20.1,30.22,SW,223,1.0,11.0,72,0.00,,,0.00,WeatherTracker,2013-01-04 21:40:00,
2013-01-04 15:45:00,27.7,20.2,30.23,SW,234,3.0,8.0,73,0.00,,,0.00,WeatherTracker,2013-01-04 21:45:00,
2013-01-04 15:50:00,27.4,19.9,30.23,West,261,5.0,8.0,73,0.00,,,0.00,WeatherTracker,2013-01-04 21:50:00,
2013-01-04 15:55:00,27.1,19.9,30.23,West,275,5.0,8.0,74,0.00,,,0.00,WeatherTracker,2013-01-04 21:55:00,
2013-01-04 16:05:00,26.7,19.5,30.23,West,269,4.0,7.0,74,0.00,,,0.00,WeatherTracker,2013-01-04 22:05:00,
2013-01-04 16:10:00,26.8,19.6,30.23,West,273,3.0,8.0,74,0.00,,,0.00,WeatherTracker,2013-01-04 22:10:00,
2013-01-04 16:15:00,26.5,19.7,30.23,WSW,250,6.0,8.0,75,0.00,,,0.00,WeatherTracker,2013-01-04 22:15:00,
2013-01-04 16:25:00,26.1,19.6,30.23,SW,225,1.0,9.0,76,0.00,,,0.00,WeatherTracker,2013-01-04 22:25:00,
2013-01-04 16:35:00,25.4,19.2,30.24,West,263,3.0,8.0,77,0.00,,,0.00,WeatherTracker,2013-01-04 22:35:00,
2013-01-04 16:45:00,25.5,19.0,30.24,WSW,246,4.0,6.0,76,0.00,,,0.00,WeatherTracker,2013-01-04 22:45:00,
2013-01-04 16:55:00,25.0,18.8,30.24,West,273,6.0,7.0,77,0.00,,,0.00,WeatherTracker,2013-01-04 22:55:00,
2013-01-04 17:00:00,25.2,19.0,30.25,West,275,4.0,8.0,77,0.00,,,0.00,WeatherTracker,2013-01-04 23:00:00,
2013-01-04 17:10:00,25.0,19.1,30.25,West,273,1.0,9.0,78,0.00,,,0.00,WeatherTracker,2013-01-04 23:10:00,
2013-01-04 17:15:00,25.1,18.9,30.25,SW,229,7.0,9.0,77,0.00,,,0.00,WeatherTracker,2013-01-04 23:15:00,
2013-01-04 17:25:00,24.6,18.7,30.25,WSW,254,4.0,9.0,78,0.00,,,0.00,WeatherTracker,2013-01-04 23:25:00,
2013-01-04 17:30:00,24.8,18.9,30.25,SW,221,4.0,9.0,78,0.00,,,0.00,WeatherTracker,2013-01-04 23:30:00,
2013-01-04 17:35:00,24.6,18.7,30.26,WSW,255,2.0,9.0,78,0.00,,,0.00,WeatherTracker,2013-01-04 23:35:00,
2013-01-04 17:40:00,24.7,18.8,30.26,South,174,0.0,8.0,78,0.00,,,0.00,WeatherTracker,2013-01-04 23:40:00,
2013-01-04 17:50:00,24.5,18.6,30.26,SW,221,4.0,10.0,78,0.00,,,0.00,WeatherTracker,2013-01-04 23:50:00,
2013-01-04 17:55:00,24.5,18.6,30.27,West,271,0.0,10.0,78,0.00,,,0.00,WeatherTracker,2013-01-04 23:55:00,
2013-01-04 18:05:00,23.6,18.1,30.27,SW,215,4.0,5.0,79,0.00,,,0.00,WeatherTracker,2013-01-05 00:05:00,
2013-01-04 18:10:00,23.7,18.2,30.27,SW,219,2.0,6.0,79,0.00,,,0.00,WeatherTracker,2013-01-05 00:10:00,
2013-01-04 18:15:00,23.6,18.4,30.27,SSW,207,0.0,6.0,80,0.00,,,0.00,WeatherTracker,2013-01-05 00:15:00,
2013-01-04 18:20:00,23.3,18.1,30.27,West,261,0.0,6.0,80,0.00,,,0.00,WeatherTracker,2013-01-05 00:20:00,
2013-01-04 18:30:00,23.1,18.2,30.27,West,270,0.0,8.0,81,0.00,,,0.00,WeatherTracker,2013-01-05 00:30:00,
2013-01-04 18:35:00,23.4,18.4,30.27,West,265,0.0,5.0,81,0.00,,,0.00,WeatherTracker,2013-01-05 00:35:00,
2013-01-04 18:40:00,23.0,18.1,30.27,SW,232,0.0,5.0,81,0.00,,,0.00,WeatherTracker,2013-01-05 00:40:00,
2013-01-04 18:45:00,22.7,17.8,30.27,WSW,252,0.0,3.0,81,0.00,,,0.00,WeatherTracker,2013-01-05 00:45:00,
2013-01-04 18:50:00,22.6,17.9,30.27,WSW,244,0.0,7.0,82,0.00,,,0.00,WeatherTracker,2013-01-05 00:50:00,
2013-01-04 19:00:00,22.6,17.9,30.27,WSW,250,1.0,7.0,82,0.00,,,0.00,WeatherTracker,2013-01-05 01:00:00,
2013-01-04 19:10:00,22.3,17.9,30.28,SW,227,5.0,7.0,83,0.00,,,0.00,WeatherTracker,2013-01-05 01:10:00,
2013-01-04 19:15:00,22.4,18.0,30.28,West,268,0.0,8.0,83,0.00,,,0.00,WeatherTracker,2013-01-05 01:15:00,
2013-01-04 19:25:00,22.1,17.7,30.28,SW,234,5.0,7.0,83,0.00,,,0.00,WeatherTracker,2013-01-05 01:25:00,
2013-01-04 19:35:00,22.0,17.6,30.28,WSW,254,0.0,7.0,83,0.00,,,0.00,WeatherTracker,2013-01-05 01:35:00,
2013-01-04 19:40:00,21.8,17.4,30.28,WSW,257,3.0,6.0,83,0.00,,,0.00,WeatherTracker,2013-01-05 01:40:00,
2013-01-04 19:50:00,22.0,17.6,30.28,West,275,0.0,6.0,83,0.00,,,0.00,WeatherTracker,2013-01-05 01:50:00,
2013-01-04 19:55:00,22.0,17.9,30.28,SSW,202,0.0,6.0,84,0.00,,,0.00,WeatherTracker,2013-01-05 01:55:00,
2013-01-04 20:00:00,21.9,17.5,30.28,SW,222,0.0,5.0,83,0.00,,,0.00,WeatherTracker,2013-01-05 02:00:00,
2013-01-04 20:10:00,21.4,17.3,30.28,SW,231,2.0,2.0,84,0.00,,,0.00,WeatherTracker,2013-01-05 02:10:00,
2013-01-04 20:15:00,21.3,17.2,30.28,SW,231,0.0,2.0,84,0.00,,,0.00,WeatherTracker,2013-01-05 02:15:00,
2013-01-04 20:25:00,20.7,16.9,30.28,SW,235,1.0,6.0,85,0.00,,,0.00,WeatherTracker,2013-01-05 02:25:00,
2013-01-04 20:30:00,20.8,17.3,30.28,SW,234,5.0,6.0,86,0.00,,,0.00,WeatherTracker,2013-01-05 02:30:00,
2013-01-04 20:40:00,21.1,17.6,30.28,SSW,213,2.0,7.0,86,0.00,,,0.00,WeatherTracker,2013-01-05 02:40:00,
2013-01-04 20:45:00,21.3,17.8,30.27,WNW,297,3.0,8.0,86,0.00,,,0.00,WeatherTracker,2013-01-05 02:45:00,
2013-01-04 20:50:00,21.4,17.6,30.27,SW,233,2.0,8.0,85,0.00,,,0.00,WeatherTracker,2013-01-05 02:50:00,
2013-01-04 20:55:00,21.4,17.6,30.27,SSW,213,4.0,7.0,85,0.00,,,0.00,WeatherTracker,2013-01-05 02:55:00,
2013-01-04 21:00:00,21.2,17.4,30.27,SSW,201,6.0,7.0,85,0.00,,,0.00,WeatherTracker,2013-01-05 03:00:00,
2013-01-04 21:10:00,20.9,17.1,30.27,SW,232,2.0,8.0,85,0.00,,,0.00,WeatherTracker,2013-01-05 03:10:00,
2013-01-04 21:15:00,20.7,17.2,30.27,WSW,253,3.0,7.0,86,0.00,,,0.00,WeatherTracker,2013-01-05 03:15:00,
2013-01-04 21:26:00,20.4,16.9,30.27,SW,219,3.0,5.0,86,0.00,,,0.00,WeatherTracker,2013-01-05 03:26:00,
2013-01-04 21:35:00,20.3,17.1,30.27,WSW,242,3.0,5.0,87,0.00,,,0.00,WeatherTracker,2013-01-05 03:35:00,
2013-01-04 21:40:00,20.4,16.9,30.28,WSW,240,2.0,5.0,86,0.00,,,0.00,WeatherTracker,2013-01-05 03:40:00,
2013-01-04 21:45:00,20.5,17.0,30.28,West,265,3.0,5.0,86,0.00,,,0.00,WeatherTracker,2013-01-05 03:45:00,
2013-01-04 21:50:00,20.5,17.0,30.28,WSW,250,2.0,6.0,86,0.00,,,0.00,WeatherTracker,2013-01-05 03:50:00,
2013-01-04 22:00:00,20.4,16.9,30.28,WNW,283,1.0,7.0,86,0.00,,,0.00,WeatherTracker,2013-01-05 04:00:00,
2013-01-04 22:05:00,20.8,17.3,30.28,WSW,257,3.0,6.0,86,0.00,,,0.00,WeatherTracker,2013-01-05 04:05:00,
2013-01-04 22:15:00,20.8,17.3,30.29,SW,215,2.0,8.0,86,0.00,,,0.00,WeatherTracker,2013-01-05 04:15:00,
2013-01-04 22:20:00,20.7,17.2,30.29,SW,227,2.0,8.0,86,0.00,,,0.00,WeatherTracker,2013-01-05 04:20:00,
2013-01-04 22:25:00,20.6,17.1,30.29,WSW,251,3.0,6.0,86,0.00,,,0.00,WeatherTracker,2013-01-05 04:25:00,
2013-01-04 22:35:00,20.7,17.5,30.29,SW,220,5.0,7.0,87,0.00,,,0.00,WeatherTracker,2013-01-05 04:35:00,
2013-01-04 22:40:00,20.9,17.4,30.29,WSW,256,4.0,7.0,86,0.00,,,0.00,WeatherTracker,2013-01-05 04:40:00,
2013-01-04 22:45:00,21.0,17.5,30.29,WSW,242,1.0,7.0,86,0.00,,,0.00,WeatherTracker,2013-01-05 04:45:00,
2013-01-04 22:55:00,20.9,17.4,30.29,West,267,3.0,9.0,86,0.00,,,0.00,WeatherTracker,2013-01-05 04:55:00,
2013-01-04 23:00:00,21.1,17.6,30.29,West,261,6.0,9.0,86,0.00,,,0.00,WeatherTracker,2013-01-05 05:00:00,
2013-01-04 23:05:00,21.2,17.7,30.28,WSW,238,1.0,8.0,86,0.00,,,0.00,WeatherTracker,2013-01-05 05:05:00,
2013-01-04 23:10:00,21.4,17.9,30.28,WSW,249,4.0,6.0,86,0.00,,,0.00,WeatherTracker,2013-01-05 05:10:00,
2013-01-04 23:15:00,21.5,18.0,30.28,West,273,3.0,6.0,86,0.00,,,0.00,WeatherTracker,2013-01-05 05:15:00,
2013-01-04 23:20:00,21.5,18.0,30.28,WNW,285,0.0,6.0,86,0.00,,,0.00,WeatherTracker,2013-01-05 05:20:00,
2013-01-04 23:25:00,21.1,17.6,30.29,West,261,0.0,5.0,86,0.00,,,0.00,WeatherTracker,2013-01-05 05:25:00,
2013-01-04 23:30:00,20.6,17.1,30.29,WSW,257,0.0,4.0,86,0.00,,,0.00,WeatherTracker,2013-01-05 05:30:00,
2013-01-04 23:40:00,20.7,17.5,30.28,WNW,289,0.0,4.0,87,0.00,,,0.00,WeatherTracker,2013-01-05 05:40:00,
2013-01-04 23:45:00,20.5,17.0,30.28,West,278,0.0,4.0,86,0.00,,,0.00,WeatherTracker,2013-01-05 05:45:00,
2013-01-04 23:50:00,20.7,17.2,30.28,West,262,0.0,5.0,86,0.00,,,0.00,WeatherTracker,2013-01-05 05:50:00,
2013-01-04 23:55:00,20.0,16.5,30.27,West,262,0.0,5.0,86,0.00,,,0.00,WeatherTracker,2013-01-05 05:55:00,